Time;durP1;ratioP1;P1;durP2;ratioP2;P2;SDS_P1;SDS_P2;PMS_P1;PMS_P2;Temp;Humidity;BMP_temperature;BMP_pressure;BME280_temperature;BME280_humidity;BME280_pressure;Samples;Min_cycle;Max_cycle;Signal;HPM_P1;HPM_P2
2021/08/11 00:01:46;;;;;;;58.60;2.70;;;16.80;1.00;;;;;;5075161;28;20560;-75
2021/08/11 00:04:13;;;;;;;58.07;2.50;;;16.80;1.00;;;;;;5075202;28;20527;-75
2021/08/11 00:06:40;;;;;;;58.20;2.80;;;16.80;1.00;;;;;;5074930;28;20449;-74
2021/08/11 00:09:07;;;;;;;58.27;2.50;;;16.90;1.00;;;;;;5074866;28;20578;-75
2021/08/11 00:11:35;;;;;;;58.37;2.47;;;16.90;1.00;;;;;;5075064;28;20476;-74
2021/08/11 00:14:04;;;;;;;58.17;2.50;;;16.80;1.00;;;;;;5074923;28;20544;-74
2021/08/11 00:16:31;;;;;;;58.27;2.50;;;16.80;1.00;;;;;;5074898;28;20487;-74
2021/08/11 00:18:58;;;;;;;58.30;2.37;;;16.80;1.00;;;;;;5074851;28;20447;-74
2021/08/11 00:21:25;;;;;;;58.20;2.53;;;16.80;1.00;;;;;;5074174;28;20516;-74
2021/08/11 00:23:52;;;;;;;58.00;2.70;;;16.80;1.00;;;;;;5075023;28;20541;-75
2021/08/11 00:26:19;;;;;;;58.03;2.50;;;16.90;1.00;;;;;;5074789;28;20862;-76
2021/08/11 00:28:46;;;;;;;57.77;2.40;;;16.90;1.00;;;;;;5074669;28;20577;-75
2021/08/11 00:31:14;;;;;;;58.00;2.60;;;16.90;1.00;;;;;;5074488;28;20556;-74
2021/08/11 00:33:41;;;;;;;58.40;2.63;;;16.80;1.00;;;;;;5074516;28;20456;-74
2021/08/11 00:36:08;;;;;;;57.97;2.40;;;16.80;1.00;;;;;;5074653;28;20471;-74
2021/08/11 00:38:35;;;;;;;58.50;2.50;;;16.80;1.00;;;;;;5074661;28;20549;-74
2021/08/11 00:41:02;;;;;;;58.37;2.60;;;16.80;1.00;;;;;;5074270;28;20992;-74
2021/08/11 00:43:29;;;;;;;58.20;2.60;;;16.70;1.00;;;;;;5074509;28;20881;-74
2021/08/11 00:45:56;;;;;;;58.07;2.47;;;16.70;1.00;;;;;;5074370;28;20455;-74
2021/08/11 00:48:27;;;;;;;58.30;3.20;;;16.70;1.00;;;;;;5074296;28;20678;-74
2021/08/11 00:50:54;;;;;;;58.27;2.73;;;16.60;1.00;;;;;;5073891;28;20982;-75
2021/08/11 00:53:25;;;;;;;57.97;2.50;;;16.60;1.00;;;;;;5074391;28;20454;-74
2021/08/11 00:55:53;;;;;;;57.90;2.50;;;16.60;1.00;;;;;;5074349;28;20541;-74
2021/08/11 00:58:21;;;;;;;58.07;2.67;;;16.60;1.00;;;;;;5074113;28;20500;-74
2021/08/11 01:00:50;;;;;;;58.47;3.00;;;16.60;1.00;;;;;;5073655;28;20473;-74
2021/08/11 01:03:19;;;;;;;58.70;2.87;;;16.60;1.00;;;;;;5072830;28;20453;-74
2021/08/11 01:05:48;;;;;;;58.07;2.40;;;16.70;1.00;;;;;;5074164;28;20480;-74
2021/08/11 01:08:16;;;;;;;58.07;2.50;;;16.70;1.00;;;;;;5074074;28;20533;-75
2021/08/11 01:10:44;;;;;;;58.13;2.63;;;16.60;1.00;;;;;;5073675;28;20512;-73
2021/08/11 01:13:13;;;;;;;58.20;2.60;;;16.60;1.00;;;;;;5074079;28;20879;-74
2021/08/11 01:15:45;;;;;;;57.87;2.40;;;16.60;1.00;;;;;;5074023;28;20895;-74
2021/08/11 01:18:12;;;;;;;58.70;2.80;;;16.50;1.00;;;;;;5073791;28;20642;-74
2021/08/11 01:20:46;;;;;;;58.40;2.60;;;16.50;1.00;;;;;;5073254;28;20599;-72
2021/08/11 01:23:21;;;;;;;58.33;2.80;;;16.40;1.00;;;;;;5073876;28;20955;-72
2021/08/11 01:25:52;;;;;;;58.07;2.87;;;16.40;1.00;;;;;;5073635;28;20444;-72
2021/08/11 01:28:43;;;;;;;58.47;3.00;;;16.40;1.00;;;;;;5073922;28;20480;-73
2021/08/11 01:31:15;;;;;;;58.27;2.80;;;16.30;1.00;;;;;;5073790;28;20472;-73
2021/08/11 01:34:00;;;;;;;58.57;2.80;;;16.30;1.00;;;;;;5073746;28;20535;-73
2021/08/11 01:36:37;;;;;;;59.00;2.97;;;16.40;1.00;;;;;;5074268;28;20531;-73
2021/08/11 01:39:07;;;;;;;58.70;3.10;;;16.40;1.00;;;;;;5073571;28;20535;-73
2021/08/11 01:41:38;;;;;;;58.50;2.60;;;16.40;1.00;;;;;;5073545;28;20557;-73
2021/08/11 01:44:07;;;;;;;58.00;2.70;;;16.40;1.00;;;;;;5073404;28;20548;-73
2021/08/11 01:46:38;;;;;;;58.07;2.90;;;16.40;1.00;;;;;;5071801;28;20457;-73
2021/08/11 01:49:09;;;;;;;58.47;2.70;;;16.50;1.00;;;;;;5072953;28;20581;-73
2021/08/11 01:51:39;;;;;;;58.50;3.00;;;16.50;1.00;;;;;;5073088;28;20469;-73
2021/08/11 01:54:08;;;;;;;57.87;2.60;;;16.50;1.00;;;;;;5072998;28;20446;-73
2021/08/11 01:56:35;;;;;;;58.20;2.80;;;16.50;1.00;;;;;;5072583;28;20949;-73
2021/08/11 01:59:03;;;;;;;58.10;2.47;;;16.50;1.00;;;;;;5073008;28;20976;-73
2021/08/11 02:01:30;;;;;;;58.50;3.07;;;16.40;1.00;;;;;;5072988;28;20971;-73
2021/08/11 02:03:58;;;;;;;58.20;2.70;;;16.40;1.00;;;;;;5072740;28;20457;-73
2021/08/11 02:06:29;;;;;;;58.20;2.60;;;16.30;1.00;;;;;;5072790;28;20444;-73
2021/08/11 02:08:57;;;;;;;58.23;2.50;;;16.30;1.00;;;;;;5072623;28;20477;-73
2021/08/11 02:11:24;;;;;;;59.00;2.80;;;16.20;1.00;;;;;;5072619;28;20467;-73
2021/08/11 02:13:51;;;;;;;58.03;2.53;;;16.10;1.00;;;;;;5072266;28;20897;-73
2021/08/11 02:16:19;;;;;;;59.83;2.83;;;16.10;1.00;;;;;;5072947;28;20459;-73
2021/08/11 02:18:46;;;;;;;58.17;2.70;;;16.00;1.00;;;;;;5072640;28;20477;-73
2021/08/11 02:21:13;;;;;;;58.50;2.90;;;16.00;1.00;;;;;;5072071;28;21028;-73
2021/08/11 02:23:42;;;;;;;58.37;2.60;;;15.90;1.00;;;;;;5072418;28;20448;-73
2021/08/11 02:26:20;;;;;;;57.87;2.40;;;15.90;1.00;;;;;;5072453;28;20444;-73
2021/08/11 02:28:54;;;;;;;58.17;2.47;;;15.90;1.00;;;;;;5072283;28;21042;-73
2021/08/11 02:31:32;;;;;;;58.33;2.70;;;15.80;1.00;;;;;;5071986;28;21007;-73
2021/08/11 02:34:05;;;;;;;58.17;2.80;;;15.80;1.00;;;;;;5072294;28;20452;-73
2021/08/11 02:36:39;;;;;;;58.27;2.43;;;15.70;1.00;;;;;;5072226;28;20451;-73
2021/08/11 02:39:11;;;;;;;58.43;2.80;;;15.70;1.00;;;;;;5072118;28;20444;-72
2021/08/11 02:41:41;;;;;;;58.50;2.80;;;15.70;1.00;;;;;;5072308;28;20463;-74
2021/08/11 02:44:12;;;;;;;58.37;2.80;;;15.60;1.00;;;;;;5072466;28;20444;-73
2021/08/11 02:46:42;;;;;;;58.37;3.00;;;15.60;1.00;;;;;;5071924;28;20841;-73
2021/08/11 02:49:11;;;;;;;58.60;2.70;;;15.60;1.00;;;;;;5071878;28;21032;-73
2021/08/11 02:51:39;;;;;;;57.87;2.70;;;15.60;1.00;;;;;;5072180;28;20521;-73
2021/08/11 02:54:12;;;;;;;58.40;2.93;;;15.60;1.00;;;;;;5072088;28;20550;-73
2021/08/11 02:56:40;;;;;;;58.10;2.80;;;15.50;1.00;;;;;;5071903;28;20447;-73
2021/08/11 02:59:07;;;;;;;58.37;2.50;;;15.50;1.00;;;;;;5071720;28;20534;-73
2021/08/11 03:01:35;;;;;;;58.37;2.60;;;15.50;1.00;;;;;;5071789;28;21003;-73
2021/08/11 03:04:02;;;;;;;58.60;2.80;;;15.50;1.00;;;;;;5072255;28;20482;-73
2021/08/11 03:06:29;;;;;;;58.43;2.67;;;15.50;1.00;;;;;;5071942;28;20534;-73
2021/08/11 03:08:56;;;;;;;57.97;2.60;;;15.50;1.00;;;;;;5071879;28;20448;-73
2021/08/11 03:11:25;;;;;;;58.23;2.53;;;15.40;1.00;;;;;;5071437;28;20495;-73
2021/08/11 03:13:52;;;;;;;58.43;3.00;;;15.40;1.00;;;;;;5072093;28;20458;-73
2021/08/11 03:16:19;;;;;;;58.60;3.20;;;15.30;1.00;;;;;;5071894;28;20481;-73
2021/08/11 03:18:49;;;;;;;58.13;2.60;;;15.30;1.00;;;;;;5071929;28;20479;-73
2021/08/11 03:21:16;;;;;;;58.20;3.00;;;15.30;1.00;;;;;;5071268;28;21002;-73
2021/08/11 03:23:42;;;;;;;59.30;4.30;;;15.30;1.00;;;;;;5071697;28;20443;-73
2021/08/11 03:26:09;;;;;;;58.40;2.90;;;15.30;1.00;;;;;;5073709;28;21053;-72
2021/08/11 03:28:37;;;;;;;58.40;2.60;;;15.40;1.00;;;;;;5075978;28;20491;-73
2021/08/11 03:31:04;;;;;;;58.40;2.70;;;15.30;1.00;;;;;;5075500;28;20892;-73
2021/08/11 03:33:31;;;;;;;58.67;3.33;;;15.30;1.00;;;;;;5076023;28;20451;-73
2021/08/11 03:35:58;;;;;;;58.70;3.20;;;15.30;1.00;;;;;;5075711;28;20899;-73
2021/08/11 03:38:25;;;;;;;58.60;3.00;;;15.30;1.00;;;;;;5075638;28;20531;-73
2021/08/11 03:40:52;;;;;;;58.27;2.50;;;15.30;1.00;;;;;;5075242;28;20503;-73
2021/08/11 03:43:19;;;;;;;57.97;2.60;;;15.30;1.00;;;;;;5075626;28;20535;-73
2021/08/11 03:45:47;;;;;;;58.03;2.50;;;15.20;1.00;;;;;;5075611;28;20539;-73
2021/08/11 03:48:13;;;;;;;58.20;2.50;;;15.20;1.00;;;;;;5075491;28;20530;-73
2021/08/11 03:50:40;;;;;;;58.27;2.63;;;15.20;1.00;;;;;;5075025;28;20483;-73
2021/08/11 03:53:09;;;;;;;57.87;2.70;;;15.20;1.00;;;;;;5075451;28;20479;-73
2021/08/11 03:55:36;;;;;;;58.37;2.53;;;15.30;1.00;;;;;;5075485;28;21078;-73
2021/08/11 03:58:04;;;;;;;58.37;2.50;;;15.30;1.00;;;;;;5075300;28;20447;-73
2021/08/11 04:00:31;;;;;;;58.80;3.37;;;15.30;1.00;;;;;;5075102;28;20472;-73
2021/08/11 04:02:59;;;;;;;58.17;2.43;;;15.40;1.00;;;;;;5075197;28;20479;-73
2021/08/11 04:05:26;;;;;;;57.97;2.47;;;15.40;1.00;;;;;;5075630;28;20513;-73
2021/08/11 04:07:53;;;;;;;58.20;2.40;;;15.40;1.00;;;;;;5074960;28;20454;-73
2021/08/11 04:10:20;;;;;;;58.37;3.40;;;15.30;1.00;;;;;;5074553;28;21160;-73
2021/08/11 04:12:47;;;;;;;58.70;2.60;;;15.30;1.00;;;;;;5075001;28;20958;-73
2021/08/11 04:15:14;;;;;;;59.93;3.53;;;15.30;1.00;;;;;;5075002;28;20539;-73
2021/08/11 04:17:41;;;;;;;58.27;2.77;;;15.30;1.00;;;;;;5074922;28;20488;-73
2021/08/11 04:20:11;;;;;;;57.97;2.53;;;15.30;1.00;;;;;;5074611;28;20484;-73
2021/08/11 04:22:38;;;;;;;58.57;2.70;;;15.40;1.00;;;;;;5074619;28;20567;-73
2021/08/11 04:25:06;;;;;;;58.90;2.60;;;15.40;1.00;;;;;;5075092;28;20540;-73
2021/08/11 04:27:33;;;;;;;58.07;2.60;;;15.40;1.00;;;;;;5074734;28;20451;-73
2021/08/11 04:29:59;;;;;;;57.97;2.50;;;15.30;1.00;;;;;;5074287;28;20918;-73
2021/08/11 04:32:26;;;;;;;58.07;2.63;;;15.40;1.00;;;;;;5074769;28;20503;-73
2021/08/11 04:34:53;;;;;;;58.27;2.80;;;15.30;1.00;;;;;;5074443;28;20509;-73
2021/08/11 04:37:21;;;;;;;58.30;2.50;;;15.30;1.00;;;;;;5074160;28;20497;-73
2021/08/11 04:39:49;;;;;;;58.37;2.50;;;15.30;1.00;;;;;;5074715;28;20867;-73
2021/08/11 04:42:16;;;;;;;58.00;2.63;;;15.30;1.00;;;;;;5074631;28;20477;-73
2021/08/11 04:44:43;;;;;;;58.03;2.60;;;15.40;1.00;;;;;;5074463;28;20449;-73
2021/08/11 04:47:10;;;;;;;58.07;2.70;;;15.30;1.00;;;;;;5074406;28;21303;-73
2021/08/11 04:49:36;;;;;;;58.13;2.77;;;15.30;1.00;;;;;;5073918;28;20480;-73
2021/08/11 04:52:04;;;;;;;58.30;2.90;;;15.30;1.00;;;;;;5074162;28;20507;-73
2021/08/11 04:54:32;;;;;;;58.47;2.70;;;15.30;1.00;;;;;;5074336;28;20538;-73
2021/08/11 04:56:59;;;;;;;58.20;2.50;;;15.30;1.00;;;;;;5074333;28;20496;-73
2021/08/11 04:59:26;;;;;;;58.30;2.67;;;15.30;1.00;;;;;;5073987;28;20819;-73
2021/08/11 05:01:52;;;;;;;58.30;3.10;;;15.30;1.00;;;;;;5073955;28;20464;-73
2021/08/11 05:04:19;;;;;;;58.30;2.97;;;15.30;1.00;;;;;;5074305;28;20855;-74
2021/08/11 05:06:46;;;;;;;59.10;2.90;;;15.30;1.00;;;;;;5074204;28;20484;-74
2021/08/11 05:09:13;;;;;;;59.33;2.90;;;15.30;1.00;;;;;;5073724;28;20452;-74
2021/08/11 05:11:41;;;;;;;58.37;2.90;;;15.30;1.00;;;;;;5073769;28;20492;-74
2021/08/11 05:14:08;;;;;;;58.40;2.60;;;15.30;1.00;;;;;;5073780;28;20461;-74
2021/08/11 05:16:35;;;;;;;58.13;2.80;;;15.30;1.00;;;;;;5073847;28;20471;-74
2021/08/11 05:19:02;;;;;;;58.17;2.60;;;15.40;1.00;;;;;;5073665;28;20545;-74
2021/08/11 05:21:29;;;;;;;57.97;2.70;;;15.40;1.00;;;;;;5073787;28;20578;-74
2021/08/11 05:23:56;;;;;;;58.23;2.80;;;15.40;1.00;;;;;;5073842;28;20449;-74
2021/08/11 05:26:23;;;;;;;58.30;2.60;;;15.40;1.00;;;;;;5073787;28;20453;-74
2021/08/11 05:28:51;;;;;;;58.20;3.07;;;15.50;1.00;;;;;;5073602;28;20500;-74
2021/08/11 05:31:18;;;;;;;58.17;2.70;;;15.50;1.00;;;;;;5073046;28;20568;-73
2021/08/11 05:33:45;;;;;;;58.30;2.90;;;15.50;1.00;;;;;;5073763;28;20455;-74
2021/08/11 05:36:12;;;;;;;58.50;3.13;;;15.50;1.00;;;;;;5073497;28;20941;-74
2021/08/11 05:38:39;;;;;;;59.90;2.60;;;15.50;1.00;;;;;;5073378;28;20518;-74
2021/08/11 05:41:06;;;;;;;58.27;2.60;;;15.50;1.00;;;;;;5073031;28;20532;-74
2021/08/11 05:43:33;;;;;;;58.40;2.80;;;15.50;1.00;;;;;;5073180;28;20561;-74
2021/08/11 05:46:02;;;;;;;58.27;2.53;;;15.50;1.00;;;;;;5072908;28;20539;-74
2021/08/11 05:48:29;;;;;;;58.37;2.60;;;15.60;1.00;;;;;;5072649;28;20474;-74
2021/08/11 05:50:56;;;;;;;58.23;2.70;;;15.60;1.00;;;;;;5072883;28;20578;-74
2021/08/11 05:53:23;;;;;;;59.27;3.00;;;15.70;1.00;;;;;;5073115;28;20537;-74
2021/08/11 05:55:50;;;;;;;58.20;2.70;;;15.80;1.00;;;;;;5073029;28;20534;-74
2021/08/11 05:58:17;;;;;;;58.17;2.70;;;15.80;1.00;;;;;;5072826;28;20937;-74
2021/08/11 06:00:44;;;;;;;58.07;2.70;;;15.90;1.00;;;;;;5072665;28;21027;-74
2021/08/11 06:03:12;;;;;;;58.20;2.80;;;15.90;1.00;;;;;;5073054;28;20485;-74
2021/08/11 06:05:39;;;;;;;58.40;2.80;;;16.00;1.00;;;;;;5072939;28;20484;-74
2021/08/11 06:08:06;;;;;;;58.10;2.57;;;16.10;1.00;;;;;;5072794;28;20453;-74
2021/08/11 06:10:33;;;;;;;58.47;2.83;;;16.10;1.00;;;;;;5072603;28;20507;-74
2021/08/11 06:13:00;;;;;;;58.90;2.97;;;16.20;1.00;;;;;;5072653;28;20489;-74
2021/08/11 06:15:27;;;;;;;57.93;2.87;;;16.30;1.00;;;;;;5072610;28;20528;-74
2021/08/11 06:17:54;;;;;;;58.20;2.87;;;16.30;1.00;;;;;;5072705;28;20461;-74
2021/08/11 06:20:24;;;;;;;59.20;3.60;;;16.40;1.00;;;;;;5072594;28;20469;-74
2021/08/11 06:22:51;;;;;;;58.00;2.60;;;16.50;1.00;;;;;;5072585;28;20446;-74
2021/08/11 06:25:19;;;;;;;57.87;2.47;;;16.50;1.00;;;;;;5072133;28;20528;-74
2021/08/11 06:27:47;;;;;;;57.93;2.57;;;16.60;1.00;;;;;;5072369;28;20535;-74
2021/08/11 06:30:14;;;;;;;58.47;2.80;;;16.70;1.00;;;;;;5071976;28;20488;-74
2021/08/11 06:32:42;;;;;;;58.17;2.63;;;16.90;1.00;;;;;;5072335;28;20487;-74
2021/08/11 06:35:10;;;;;;;57.87;2.50;;;17.00;1.00;;;;;;5072385;28;20450;-74
2021/08/11 06:37:49;;;;;;;58.50;3.07;;;17.10;1.00;;;;;;5072114;28;20454;-74
2021/08/11 06:40:17;;;;;;;58.20;2.50;;;17.30;1.00;;;;;;5072153;28;20454;-74
2021/08/11 06:42:45;;;;;;;57.87;2.30;;;17.40;1.00;;;;;;5072220;28;20456;-74
2021/08/11 06:45:12;;;;;;;58.03;2.50;;;17.50;1.00;;;;;;5072287;28;20576;-74
2021/08/11 06:47:40;;;;;;;57.93;2.77;;;17.70;1.00;;;;;;5072137;28;20545;-74
2021/08/11 06:50:09;;;;;;;58.17;2.50;;;17.80;1.00;;;;;;5071795;28;20545;-74
2021/08/11 06:52:36;;;;;;;58.17;2.57;;;18.00;1.00;;;;;;5072260;28;20504;-74
2021/08/11 06:55:07;;;;;;;58.40;2.70;;;18.10;1.00;;;;;;5072197;28;20965;-74
2021/08/11 06:57:34;;;;;;;57.80;2.60;;;18.20;1.00;;;;;;5072079;28;20537;-74
2021/08/11 07:00:01;;;;;;;58.10;2.57;;;18.40;1.00;;;;;;5071521;28;20934;-74
2021/08/11 07:02:28;;;;;;;57.57;2.30;;;18.50;1.00;;;;;;5071956;28;21093;-74
2021/08/11 07:04:54;;;;;;;57.77;2.40;;;18.60;1.00;;;;;;5072314;28;20482;-73
2021/08/11 07:07:21;;;;;;;58.50;3.10;;;18.70;1.00;;;;;;5072097;28;20497;-74
2021/08/11 07:09:48;;;;;;;57.57;2.50;;;18.90;1.00;;;;;;5071730;28;20531;-74
2021/08/11 07:12:16;;;;;;;57.73;2.90;;;19.00;1.00;;;;;;5071794;28;20572;-74
2021/08/11 07:14:43;;;;;;;57.97;2.53;;;19.10;1.00;;;;;;5072075;28;20533;-74
2021/08/11 07:17:10;;;;;;;57.80;2.50;;;19.20;1.00;;;;;;5071767;28;20902;-74
2021/08/11 07:19:38;;;;;;;58.70;3.00;;;19.30;1.00;;;;;;5071360;28;20534;-74
2021/08/11 07:22:04;;;;;;;58.20;2.37;;;19.30;1.00;;;;;;5071553;28;20480;-74
2021/08/11 07:24:31;;;;;;;57.47;2.40;;;19.30;1.00;;;;;;5072040;28;20489;-74
2021/08/11 07:26:58;;;;;;;58.30;2.50;;;19.40;1.00;;;;;;5071900;28;20444;-74
2021/08/11 07:29:26;;;;;;;57.67;2.50;;;19.50;1.00;;;;;;5071585;28;20994;-74
2021/08/11 07:31:53;;;;;;;58.07;2.50;;;19.60;1.00;;;;;;5071417;28;20518;-74
2021/08/11 07:34:20;;;;;;;57.77;2.50;;;19.60;1.00;;;;;;5071814;28;20483;-74
2021/08/11 07:36:47;;;;;;;57.73;2.40;;;19.70;1.00;;;;;;5071538;28;20543;-74
2021/08/11 07:39:14;;;;;;;57.77;2.70;;;19.80;1.00;;;;;;5071407;28;20883;-74
2021/08/11 07:41:40;;;;;;;57.97;2.60;;;19.90;1.00;;;;;;5071510;28;20467;-74
2021/08/11 07:44:07;;;;;;;58.30;3.00;;;20.00;1.00;;;;;;5071536;28;20638;-74
2021/08/11 07:46:36;;;;;;;57.57;2.40;;;20.20;1.00;;;;;;5071771;28;20530;-74
2021/08/11 07:49:02;;;;;;;57.67;2.80;;;20.30;1.00;;;;;;5071355;28;20535;-74
2021/08/11 07:51:29;;;;;;;58.17;3.33;;;20.40;1.00;;;;;;5071118;28;20612;-74
2021/08/11 07:53:56;;;;;;;57.47;2.30;;;20.50;1.00;;;;;;5071357;28;20470;-74
2021/08/11 07:56:23;;;;;;;57.73;2.43;;;20.50;1.00;;;;;;5071361;28;20506;-74
2021/08/11 07:58:50;;;;;;;58.00;2.20;;;20.60;1.00;;;;;;5071339;28;20447;-74
2021/08/11 08:01:17;;;;;;;57.93;2.50;;;20.70;1.00;;;;;;5070947;28;20465;-74
2021/08/11 08:03:45;;;;;;;58.23;2.27;;;20.90;1.00;;;;;;5071505;28;20885;-74
2021/08/11 08:06:12;;;;;;;58.17;2.53;;;21.00;1.00;;;;;;5071282;28;20532;-73
2021/08/11 08:08:39;;;;;;;58.20;2.83;;;21.00;1.00;;;;;;5071290;28;20470;-73
2021/08/11 08:11:05;;;;;;;57.47;2.50;;;21.00;1.00;;;;;;5071010;28;20516;-73
2021/08/11 08:13:32;;;;;;;57.73;2.40;;;21.00;1.00;;;;;;5074872;28;20480;-73
2021/08/11 08:15:59;;;;;;;57.77;2.33;;;21.00;1.00;;;;;;5074870;28;20485;-74
2021/08/11 08:18:26;;;;;;;57.80;2.40;;;21.10;1.00;;;;;;5074780;28;20538;-73
2021/08/11 08:20:56;;;;;;;58.17;2.40;;;21.20;1.00;;;;;;5074621;28;20564;-73
2021/08/11 08:23:25;;;;;;;57.73;2.50;;;21.30;1.00;;;;;;5074885;28;20482;-72
2021/08/11 08:25:52;;;;;;;58.17;2.30;;;21.40;1.00;;;;;;5074832;28;20454;-72
2021/08/11 08:28:18;;;;;;;57.70;2.30;;;21.50;1.00;;;;;;5074641;28;20826;-72
2021/08/11 08:30:48;;;;;;;57.97;2.30;;;21.60;1.00;;;;;;5074440;28;20560;-71
2021/08/11 08:33:15;;;;;;;57.97;2.50;;;21.70;1.00;;;;;;5074565;28;20533;-71
2021/08/11 08:35:42;;;;;;;57.73;2.30;;;21.80;1.00;;;;;;5074653;28;20800;-71
2021/08/11 08:38:10;;;;;;;57.87;2.80;;;21.90;1.00;;;;;;5074378;28;20939;-71
2021/08/11 08:40:39;;;;;;;57.57;2.50;;;21.90;1.00;;;;;;5074146;28;20474;-71
2021/08/11 08:43:07;;;;;;;58.97;2.67;;;22.00;1.00;;;;;;5074701;28;20510;-71
2021/08/11 08:45:34;;;;;;;57.73;2.40;;;22.20;1.00;;;;;;5074611;28;20538;-72
2021/08/11 08:48:04;;;;;;;57.93;2.80;;;22.30;1.00;;;;;;5074308;28;20955;-72
2021/08/11 08:50:32;;;;;;;58.17;2.70;;;22.40;1.00;;;;;;5073927;28;20447;-71
2021/08/11 08:53:00;;;;;;;57.90;2.50;;;22.50;1.00;;;;;;5074274;28;20870;-72
2021/08/11 08:55:29;;;;;;;58.80;3.00;;;22.60;1.00;;;;;;5074115;28;20447;-72
2021/08/11 08:57:56;;;;;;;57.67;2.50;;;22.70;1.00;;;;;;5074329;28;20478;-72
2021/08/11 09:00:23;;;;;;;63.70;3.57;;;22.80;1.00;;;;;;5073687;28;20530;-72
2021/08/11 09:02:50;;;;;;;57.93;2.60;;;22.90;1.00;;;;;;5074085;28;20789;-71
2021/08/11 09:05:17;;;;;;;57.77;2.67;;;23.10;1.00;;;;;;5074161;28;21015;-71
2021/08/11 09:07:45;;;;;;;57.97;2.50;;;23.20;1.00;;;;;;5073778;28;20479;-71
2021/08/11 09:10:17;;;;;;;57.97;2.50;;;23.30;1.00;;;;;;5073853;28;20444;-71
2021/08/11 09:12:50;;;;;;;58.50;2.33;;;23.40;1.00;;;;;;5074069;28;20483;-71
2021/08/11 09:15:27;;;;;;;57.93;2.23;;;23.50;1.00;;;;;;5073959;28;20513;-71
2021/08/11 09:17:54;;;;;;;57.73;2.20;;;23.60;1.00;;;;;;5073863;28;20533;-71
2021/08/11 09:20:26;;;;;;;57.97;2.20;;;23.80;1.00;;;;;;5073238;28;21014;-71
2021/08/11 09:22:55;;;;;;;57.97;2.90;;;24.00;1.00;;;;;;5072944;28;20443;-71
2021/08/11 09:25:23;;;;;;;57.50;2.33;;;24.20;1.00;;;;;;5073690;28;20485;-71
2021/08/11 09:27:51;;;;;;;58.20;2.40;;;24.30;1.00;;;;;;5073499;28;20479;-71
2021/08/11 09:30:20;;;;;;;58.03;2.17;;;24.50;1.00;;;;;;5073434;28;20447;-71
2021/08/11 09:32:49;;;;;;;57.77;2.20;;;24.60;1.00;;;;;;5073379;28;20522;-71
2021/08/11 09:35:18;;;;;;;57.87;2.17;;;24.80;1.00;;;;;;5073619;28;20448;-71
2021/08/11 09:37:45;;;;;;;58.07;2.67;;;24.90;1.00;;;;;;5073468;28;20491;-71
2021/08/11 09:40:14;;;;;;;57.87;2.30;;;25.10;1.00;;;;;;5073180;28;20538;-71
2021/08/11 09:42:41;;;;;;;57.80;2.17;;;25.30;1.00;;;;;;5073429;28;20442;-71
2021/08/11 09:45:11;;;;;;;57.73;2.07;;;25.50;1.00;;;;;;5073707;28;20452;-71
2021/08/11 09:47:39;;;;;;;57.87;2.30;;;25.70;1.00;;;;;;5073181;28;20536;-71
2021/08/11 09:50:11;;;;;;;57.67;2.20;;;25.90;1.00;;;;;;5073177;28;20451;-72
2021/08/11 09:52:48;;;;;;;57.93;2.43;;;26.10;1.00;;;;;;5072991;28;20489;-72
2021/08/11 09:55:15;;;;;;;57.90;2.27;;;26.30;1.00;;;;;;5073144;28;20821;-72
2021/08/11 09:57:42;;;;;;;58.00;2.30;;;26.40;1.00;;;;;;5072791;28;20486;-72
2021/08/11 10:00:13;;;;;;;57.80;2.43;;;26.60;1.00;;;;;;5073102;28;20533;-71
2021/08/11 10:02:41;;;;;;;57.73;2.10;;;26.80;1.00;;;;;;5073193;28;20443;-72
2021/08/11 10:05:10;;;;;;;59.23;2.53;;;27.00;1.00;;;;;;5072911;28;20478;-72
2021/08/11 10:07:38;;;;;;;57.93;2.43;;;27.30;1.00;;;;;;5072954;28;20443;-72
2021/08/11 10:10:07;;;;;;;58.33;2.50;;;27.70;1.00;;;;;;5072595;28;20443;-72
2021/08/11 10:12:35;;;;;;;58.10;2.50;;;28.20;1.00;;;;;;5072788;28;20518;-72
2021/08/11 10:15:04;;;;;;;58.20;2.40;;;28.60;1.00;;;;;;5072904;28;20454;-72
2021/08/11 10:17:34;;;;;;;57.87;2.30;;;28.90;1.00;;;;;;5072909;28;20443;-72
2021/08/11 10:20:04;;;;;;;57.70;2.03;;;29.50;1.00;;;;;;5072404;28;20459;-72
2021/08/11 10:22:32;;;;;;;57.67;2.30;;;30.00;1.00;;;;;;5072334;28;20974;-72
2021/08/11 10:25:00;;;;;;;57.87;2.40;;;31.00;1.00;;;;;;5072406;28;20486;-72
2021/08/11 10:27:27;;;;;;;57.37;2.20;;;32.00;1.00;;;;;;5072764;28;20540;-72
2021/08/11 10:29:55;;;;;;;57.40;2.30;;;32.90;1.00;;;;;;5072193;28;20966;-72
2021/08/11 10:32:23;;;;;;;57.60;2.67;;;33.60;1.00;;;;;;5072211;28;20522;-72
2021/08/11 10:34:54;;;;;;;57.80;2.47;;;34.40;1.00;;;;;;5072016;28;21015;-70
2021/08/11 10:37:22;;;;;;;57.60;2.60;;;34.70;1.00;;;;;;5072547;28;20466;-70
2021/08/11 10:39:50;;;;;;;57.60;2.23;;;34.40;1.00;;;;;;5072193;28;20806;-72
2021/08/11 10:42:17;;;;;;;57.07;2.13;;;34.60;1.00;;;;;;5072422;28;20463;-72
2021/08/11 10:44:45;;;;;;;57.27;2.10;;;35.40;1.00;;;;;;5072210;28;20846;-70
2021/08/11 10:47:13;;;;;;;57.20;2.23;;;36.30;1.00;;;;;;5072021;28;20487;-71
2021/08/11 10:49:57;;;;;;;57.27;2.17;;;37.20;1.00;;;;;;5071913;28;20534;-71
2021/08/11 10:52:25;;;;;;;57.50;2.47;;;37.90;1.00;;;;;;5070596;28;20574;-71
2021/08/11 10:54:54;;;;;;;56.77;2.53;;;38.50;1.00;;;;;;5072198;28;20451;-71
2021/08/11 10:57:46;;;;;;;56.87;2.27;;;38.70;1.00;;;;;;5072116;28;20958;-71
2021/08/11 11:00:44;;;;;;;56.67;1.90;;;38.80;1.00;;;;;;5072160;28;20501;-71
2021/08/11 11:03:31;;;;;;;56.90;2.10;;;38.70;1.00;;;;;;5072114;28;20505;-71
2021/08/11 11:05:59;;;;;;;57.30;2.37;;;38.70;1.00;;;;;;5071813;28;20526;-71
2021/08/11 11:08:37;;;;;;;57.20;2.27;;;38.80;1.00;;;;;;5071789;28;20469;-71
2021/08/11 11:11:38;;;;;;;57.80;2.87;;;38.90;1.00;;;;;;5071708;28;20871;-71
2021/08/11 11:14:50;;;;;;;57.17;2.80;;;39.50;1.00;;;;;;5071875;28;20440;-71
2021/08/11 11:17:18;;;;;;;57.37;3.10;;;39.30;1.00;;;;;;5071758;28;20931;-71
2021/08/11 11:20:24;;;;;;;56.97;2.00;;;38.00;1.00;;;;;;5071802;28;20534;-71
2021/08/11 11:23:12;;;;;;;57.63;2.33;;;36.90;1.00;;;;;;5071850;28;20923;-71
2021/08/11 11:26:01;;;;;;;57.80;2.97;;;36.10;1.00;;;;;;5061767;28;20456;-71
2021/08/11 11:28:53;;;;;;;57.33;2.30;;;35.10;1.00;;;;;;5071874;28;20505;-71
2021/08/11 11:31:48;;;;;;;57.70;2.43;;;34.10;1.00;;;;;;5068104;28;21033;-71
2021/08/11 11:34:26;;;;;;;58.20;2.13;;;33.70;1.00;;;;;;5036099;28;20456;-71
2021/08/11 11:37:24;;;;;;;57.37;2.60;;;33.50;1.00;;;;;;5071570;28;20500;-71
2021/08/11 11:40:17;;;;;;;57.37;2.20;;;33.10;1.00;;;;;;5071210;28;20443;-71
2021/08/11 11:42:45;;;;;;;57.60;2.00;;;32.30;1.00;;;;;;5071649;28;20443;-71
2021/08/11 11:45:14;;;;;;;57.77;2.00;;;31.50;1.00;;;;;;5071592;28;20537;-71
2021/08/11 11:48:12;;;;;;;58.07;2.43;;;31.00;1.00;;;;;;5074344;28;20451;-71
2021/08/11 11:50:46;;;;;;;58.00;2.23;;;30.40;1.00;;;;;;5075282;28;20465;-71
2021/08/11 11:53:33;;;;;;;57.47;2.20;;;30.40;1.00;;;;;;5075639;28;20853;-71
2021/08/11 11:56:11;;;;;;;57.50;2.10;;;31.80;1.00;;;;;;5075570;28;20513;-71
2021/08/11 11:58:43;;;;;;;57.17;1.93;;;33.90;1.00;;;;;;5075226;28;20454;-71
2021/08/11 12:01:11;;;;;;;57.40;2.17;;;35.60;1.00;;;;;;5075295;28;20503;-71
2021/08/11 12:03:40;;;;;;;57.30;2.50;;;36.90;1.00;;;;;;5075676;28;20444;-72
2021/08/11 12:06:09;;;;;;;56.87;2.37;;;37.90;1.00;;;;;;5075202;28;20529;-72
2021/08/11 12:08:36;;;;;;;56.93;2.13;;;38.80;1.00;;;;;;5075362;28;20569;-72
2021/08/11 12:11:08;;;;;;;57.20;2.40;;;39.40;1.00;;;;;;5074659;28;20478;-72
2021/08/11 12:13:43;;;;;;;56.87;2.20;;;40.10;1.00;;;;;;5075390;28;20486;-72
2021/08/11 12:16:12;;;;;;;56.80;2.30;;;40.20;1.00;;;;;;5074847;28;20457;-71
2021/08/11 12:18:41;;;;;;;58.17;2.50;;;40.40;1.00;;;;;;5074844;28;20451;-72
2021/08/11 12:21:10;;;;;;;57.00;2.60;;;40.50;1.00;;;;;;5074478;28;20518;-71
2021/08/11 12:23:37;;;;;;;56.93;2.17;;;40.70;1.00;;;;;;5074555;28;20446;-71
2021/08/11 12:26:12;;;;;;;56.57;2.17;;;40.90;1.00;;;;;;5074466;28;20487;-70
2021/08/11 12:28:42;;;;;;;57.00;2.30;;;40.90;1.00;;;;;;5074929;28;20821;-71
2021/08/11 12:31:12;;;;;;;57.17;2.53;;;40.20;1.00;;;;;;5074304;28;20471;-70
2021/08/11 12:33:42;;;;;;;56.77;2.17;;;38.90;1.00;;;;;;5073840;28;20488;-71
2021/08/11 12:36:13;;;;;;;56.73;2.27;;;38.00;1.00;;;;;;5073944;28;20451;-71
2021/08/11 12:38:42;;;;;;;57.03;2.10;;;37.30;1.00;;;;;;5074704;28;20453;-71
2021/08/11 12:41:19;;;;;;;57.67;2.57;;;36.40;1.00;;;;;;5074207;28;20494;-71
2021/08/11 12:43:46;;;;;;;57.47;2.13;;;35.50;1.00;;;;;;5074556;28;20858;-71
2021/08/11 12:46:13;;;;;;;57.00;2.00;;;36.00;1.00;;;;;;5073945;28;20478;-71
2021/08/11 12:48:41;;;;;;;57.50;2.80;;;37.00;1.00;;;;;;5074067;28;20443;-72
2021/08/11 12:51:21;;;;;;;57.00;2.13;;;38.00;1.00;;;;;;5074064;28;20904;-72
2021/08/11 12:54:03;;;;;;;57.20;2.57;;;38.60;1.00;;;;;;5074181;28;20514;-72
2021/08/11 12:56:32;;;;;;;57.07;2.60;;;39.00;1.00;;;;;;5074310;28;20447;-72
2021/08/11 12:59:01;;;;;;;57.50;2.20;;;39.20;1.00;;;;;;5074040;28;20543;-71
2021/08/11 13:01:32;;;;;;;56.87;2.20;;;39.70;1.00;;;;;;5074311;28;20878;-72